Time;durP1;ratioP1;P1;durP2;ratioP2;P2;SDS_P1;SDS_P2;PMS_P1;PMS_P2;Temp;Humidity;BMP_temperature;BMP_pressure;BME280_temperature;BME280_humidity;BME280_pressure;Samples;Min_cycle;Max_cycle;Signal;HPM_P1;HPM_P2
2023/09/29 00:01:59;;;;;;;1.95;1.60;;;;;;;17.15;100.00;98747.84;4184354;28;20238;-48
2023/09/29 00:04:05;;;;;;;2.05;1.00;;;;;;;17.27;100.00;98741.97;4184173;28;20199;-48
2023/09/29 00:06:07;;;;;;;1.25;1.20;;;;;;;17.30;100.00;98733.06;4187704;28;20284;-48
2023/09/29 00:08:13;;;;;;;3.22;1.25;;;;;;;17.26;100.00;98729.25;4183113;28;20211;-48
2023/09/29 00:10:16;;;;;;;4.13;1.63;;;;;;;17.19;100.00;98725.97;4187930;28;20501;-49
2023/09/29 00:12:18;;;;;;;1.95;1.30;;;;;;;17.12;100.00;98722.72;4186004;28;20206;-48
2023/09/29 00:14:20;;;;;;;0.98;0.98;;;;;;;17.02;100.00;98717.22;4188617;28;20230;-49
2023/09/29 00:16:22;;;;;;;2.67;1.15;;;;;;;17.00;100.00;98730.53;4189488;28;20681;-48
2023/09/29 00:18:24;;;;;;;1.50;1.13;;;;;;;17.02;100.00;98728.28;4184157;28;20208;-48
2023/09/29 00:20:26;;;;;;;6.95;1.50;;;;;;;17.04;100.00;98731.59;4185466;28;20211;-48
2023/09/29 00:22:28;;;;;;;8.93;1.00;;;;;;;17.07;100.00;98736.56;4184787;28;20271;-48
2023/09/29 00:24:29;;;;;;;1.70;1.30;;;;;;;17.12;100.00;98750.38;4185324;28;20748;-48
2023/09/29 00:26:31;;;;;;;1.08;1.00;;;;;;;17.11;100.00;98744.00;4197085;28;20229;-49
2023/09/29 00:28:33;;;;;;;1.42;0.95;;;;;;;17.13;100.00;98746.50;4194716;28;20258;-49
2023/09/29 00:30:35;;;;;;;1.48;1.30;;;;;;;17.09;100.00;98756.47;4187515;28;20212;-49
2023/09/29 00:32:36;;;;;;;1.73;1.13;;;;;;;17.05;100.00;98749.88;4187154;28;20214;-48
2023/09/29 00:34:38;;;;;;;1.63;1.45;;;;;;;16.95;100.00;98744.38;4200514;28;20210;-50
2023/09/29 00:36:40;;;;;;;3.78;1.38;;;;;;;16.89;100.00;98753.81;4184218;28;20228;-49
2023/09/29 00:38:42;;;;;;;1.17;1.00;;;;;;;16.85;100.00;98752.75;4183969;28;20207;-46
2023/09/29 00:40:43;;;;;;;1.30;0.90;;;;;;;16.84;100.00;98751.06;4181248;28;20208;-46
2023/09/29 00:42:48;;;;;;;1.65;0.98;;;;;;;16.87;100.00;98744.13;4184478;28;20708;-47
2023/09/29 00:44:50;;;;;;;1.75;1.13;;;;;;;16.83;100.00;98743.06;4188512;28;20269;-46
2023/09/29 00:46:52;;;;;;;1.15;1.05;;;;;;;16.81;100.00;98748.88;4169453;28;20200;-47
2023/09/29 00:48:54;;;;;;;1.02;0.98;;;;;;;16.80;100.00;98752.75;4201373;28;20260;-46
2023/09/29 00:50:57;;;;;;;2.90;1.25;;;;;;;16.80;100.00;98752.75;4183979;28;20658;-46
2023/09/29 00:52:59;;;;;;;1.70;1.45;;;;;;;16.73;100.00;98749.47;4184797;28;20255;-45
2023/09/29 00:55:01;;;;;;;2.92;1.40;;;;;;;16.67;100.00;98747.84;4183072;28;20208;-46
2023/09/29 00:57:05;;;;;;;1.17;1.00;;;;;;;16.68;100.00;98752.25;4187058;28;20212;-47
2023/09/29 00:59:09;;;;;;;2.95;1.35;;;;;;;16.60;100.00;98758.38;4183935;28;20215;-46
2023/09/29 01:01:14;;;;;;;2.35;1.40;;;;;;;16.57;100.00;98747.06;4182479;28;20211;-45
2023/09/29 01:03:16;;;;;;;2.55;1.02;;;;;;;16.61;100.00;98748.97;4183343;28;20637;-49
2023/09/29 01:05:18;;;;;;;1.83;1.27;;;;;;;16.62;100.00;98756.16;4176056;28;20231;-48
2023/09/29 01:07:20;;;;;;;1.10;1.00;;;;;;;16.60;100.00;98746.50;4183896;28;20204;-48
2023/09/29 01:09:22;;;;;;;5.25;1.40;;;;;;;16.58;100.00;98751.47;4184212;28;20203;-48
2023/09/29 01:11:24;;;;;;;1.38;1.25;;;;;;;16.58;100.00;98755.09;4185858;28;20276;-48
2023/09/29 01:13:26;;;;;;;1.38;1.27;;;;;;;16.59;100.00;98751.22;4185803;28;20246;-49
2023/09/29 01:15:28;;;;;;;2.70;1.33;;;;;;;16.70;100.00;98744.50;4182337;28;20234;-47
2023/09/29 01:17:30;;;;;;;1.80;1.42;;;;;;;16.70;100.00;98741.75;4202420;28;20469;-49
2023/09/29 01:19:32;;;;;;;1.65;1.20;;;;;;;16.61;100.00;98743.44;4184114;28;20208;-49
2023/09/29 01:21:34;;;;;;;1.98;1.50;;;;;;;16.62;100.00;98744.28;4187816;28;20589;-48
2023/09/29 01:23:36;;;;;;;4.60;1.73;;;;;;;16.63;100.00;98741.22;4184192;28;20207;-47
2023/09/29 01:25:38;;;;;;;1.40;1.30;;;;;;;16.71;100.00;98735.13;4184023;28;20223;-48
2023/09/29 01:27:40;;;;;;;1.73;1.30;;;;;;;16.69;100.00;98731.81;4183200;28;20216;-48
2023/09/29 01:29:41;;;;;;;1.73;1.63;;;;;;;16.67;100.00;98728.50;4184428;28;20208;-47
2023/09/29 01:31:44;;;;;;;1.33;1.20;;;;;;;16.68;100.00;98724.63;4187890;28;20215;-48
2023/09/29 01:33:46;;;;;;;2.70;1.83;;;;;;;16.68;100.00;98727.38;4179832;28;20242;-48
2023/09/29 01:35:48;;;;;;;1.95;1.30;;;;;;;16.66;100.00;98721.34;4188160;28;20227;-48
2023/09/29 01:37:53;;;;;;;2.55;2.22;;;;;;;16.69;100.00;98717.97;4185786;28;20236;-48
2023/09/29 01:39:55;;;;;;;1.85;1.70;;;;;;;16.67;100.00;98720.22;4181169;28;20203;-49
2023/09/29 01:41:57;;;;;;;1.33;1.10;;;;;;;16.74;100.00;98720.72;4186068;28;20241;-48
2023/09/29 01:43:58;;;;;;;6.65;1.60;;;;;;;16.80;100.00;98714.06;4176107;28;20298;-48
2023/09/29 01:46:01;;;;;;;1.90;1.33;;;;;;;16.78;100.00;98718.22;4198565;28;20230;-48
2023/09/29 01:48:03;;;;;;;2.13;1.45;;;;;;;16.75;100.00;98714.09;4191310;28;20282;-48
2023/09/29 01:50:06;;;;;;;1.13;0.98;;;;;;;16.70;100.00;98714.09;4188729;28;20204;-48
2023/09/29 01:52:08;;;;;;;3.65;2.35;;;;;;;16.72;100.00;98711.91;4191495;28;20207;-47
2023/09/29 01:54:09;;;;;;;1.83;1.10;;;;;;;16.79;100.00;98706.88;4190893;28;20210;-48
2023/09/29 01:56:11;;;;;;;1.63;1.23;;;;;;;16.84;100.00;98709.59;4200669;28;20336;-48
2023/09/29 01:58:13;;;;;;;1.77;1.23;;;;;;;16.73;100.00;98696.97;4193218;28;20234;-48
2023/09/29 02:00:19;;;;;;;1.40;0.93;;;;;;;16.72;100.00;98706.38;4193056;28;20207;-48
2023/09/29 02:02:21;;;;;;;1.15;1.05;;;;;;;16.73;100.00;98707.19;4182176;28;20258;-48
2023/09/29 02:04:23;;;;;;;1.25;1.15;;;;;;;16.76;100.00;98715.72;4190898;28;20249;-48
2023/09/29 02:06:27;;;;;;;2.15;1.55;;;;;;;16.78;100.00;98718.22;4191889;28;20234;-47
2023/09/29 02:08:30;;;;;;;1.17;1.00;;;;;;;16.80;100.00;98719.59;4188137;28;20204;-48
2023/09/29 02:10:32;;;;;;;4.95;1.33;;;;;;;16.81;100.00;98720.41;4187668;28;20294;-48
2023/09/29 02:12:34;;;;;;;2.08;1.23;;;;;;;16.83;100.00;98716.25;4189477;28;20303;-48
2023/09/29 02:14:36;;;;;;;1.15;1.00;;;;;;;16.76;100.00;98714.94;4185627;28;20245;-48
2023/09/29 02:16:38;;;;;;;1.80;1.05;;;;;;;16.70;100.00;98713.28;4203518;28;20313;-49
2023/09/29 02:18:40;;;;;;;9.88;1.17;;;;;;;16.69;100.00;98717.97;4186987;28;20219;-48
2023/09/29 02:20:46;;;;;;;1.83;1.10;;;;;;;16.69;100.00;98720.75;4169164;28;20644;-46
2023/09/29 02:22:49;;;;;;;1.73;1.42;;;;;;;16.72;100.00;98717.44;4183895;28;20204;-46
2023/09/29 02:24:50;;;;;;;2.45;1.05;;;;;;;16.69;100.00;98723.50;4190747;28;20203;-46
2023/09/29 02:26:52;;;;;;;1.70;1.08;;;;;;;16.68;100.00;98727.38;4191100;28;20207;-46
2023/09/29 02:28:55;;;;;;;1.45;1.13;;;;;;;16.70;100.00;98725.16;4185875;28;20239;-46
2023/09/29 02:30:58;;;;;;;1.05;1.05;;;;;;;16.68;100.00;98730.16;4185949;28;20203;-45
2023/09/29 02:33:01;;;;;;;1.92;1.30;;;;;;;16.67;100.00;98725.75;4186393;28;20402;-45
2023/09/29 02:35:03;;;;;;;1.40;1.20;;;;;;;16.68;100.00;98721.88;4186015;28;20207;-46
2023/09/29 02:37:05;;;;;;;2.63;1.10;;;;;;;16.61;100.00;98718.59;4184930;28;20207;-47
2023/09/29 02:39:08;;;;;;;2.08;1.77;;;;;;;16.58;100.00;98721.94;4186641;28;20239;-46
2023/09/29 02:41:10;;;;;;;1.40;1.30;;;;;;;16.60;100.00;98721.63;4185181;28;20227;-45
2023/09/29 02:43:12;;;;;;;1.45;1.25;;;;;;;16.58;100.00;98723.84;4189097;28;20754;-46
2023/09/29 02:45:14;;;;;;;2.33;1.83;;;;;;;16.58;100.00;98721.94;4189489;28;20726;-47
2023/09/29 02:47:16;;;;;;;0.90;0.90;;;;;;;16.60;100.00;98725.22;4183891;28;20219;-47
2023/09/29 02:49:20;;;;;;;1.88;1.30;;;;;;;16.61;100.00;98726.88;4184314;28;20681;-47
2023/09/29 02:51:22;;;;;;;1.08;0.80;;;;;;;16.63;100.00;98734.88;4186504;28;20203;-46
2023/09/29 02:53:23;;;;;;;1.25;1.15;;;;;;;16.63;100.00;98730.16;4186142;28;20304;-46
2023/09/29 02:55:26;;;;;;;2.15;1.40;;;;;;;16.59;100.00;98723.56;4189219;28;20353;-46
2023/09/29 02:57:29;;;;;;;2.60;1.33;;;;;;;16.54;100.00;98712.53;4189969;28;20554;-47
2023/09/29 02:59:34;;;;;;;2.60;1.42;;;;;;;16.53;100.00;98713.66;4185551;28;20717;-46
2023/09/29 03:01:36;;;;;;;2.78;1.48;;;;;;;16.55;100.00;98711.44;4189597;28;20305;-45
2023/09/29 03:03:45;;;;;;;2.42;1.88;;;;;;;16.39;100.00;98707.09;4186020;28;20215;-46
2023/09/29 03:05:47;;;;;;;1.50;1.15;;;;;;;16.36;100.00;98715.88;4185331;28;20230;-46
2023/09/29 03:07:49;;;;;;;2.78;1.55;;;;;;;16.37;100.00;98703.72;4173397;28;20212;-46
2023/09/29 03:09:55;;;;;;;2.08;1.50;;;;;;;16.42;100.00;98705.69;4183655;28;20231;-45
2023/09/29 03:11:59;;;;;;;2.25;1.52;;;;;;;16.41;100.00;98710.38;4190411;28;20399;-46
2023/09/29 03:14:00;;;;;;;2.50;1.27;;;;;;;16.28;100.00;98705.44;4187576;28;20210;-45
2023/09/29 03:16:02;;;;;;;1.38;1.00;;;;;;;16.32;100.00;98705.69;4187930;28;20239;-45
2023/09/29 03:18:05;;;;;;;1.90;1.58;;;;;;;16.35;100.00;98711.47;4188795;28;20684;-48
2023/09/29 03:20:12;;;;;;;1.50;1.40;;;;;;;16.41;100.00;98715.91;4186296;28;20199;-48
2023/09/29 03:22:14;;;;;;;1.63;1.20;;;;;;;16.46;100.00;98704.84;4204576;28;20231;-48
2023/09/29 03:24:16;;;;;;;1.60;1.50;;;;;;;16.53;100.00;98713.66;4200559;28;20750;-48
2023/09/29 03:26:21;;;;;;;1.85;1.30;;;;;;;16.53;100.00;98710.06;4189534;28;20728;-48
2023/09/29 03:28:23;;;;;;;1.48;1.08;;;;;;;16.54;100.00;98715.31;4173922;28;20590;-48
2023/09/29 03:30:25;;;;;;;1.13;1.10;;;;;;;16.54;100.00;98709.78;4188245;28;20292;-47
2023/09/29 03:32:29;;;;;;;1.52;1.42;;;;;;;16.58;100.00;98719.16;4185182;28;20208;-48
2023/09/29 03:34:31;;;;;;;1.92;1.60;;;;;;;16.56;100.00;98718.59;4190052;28;20215;-48
2023/09/29 03:36:33;;;;;;;2.05;1.45;;;;;;;16.54;100.00;98714.47;4184798;28;20234;-48
2023/09/29 03:38:37;;;;;;;3.08;1.30;;;;;;;16.54;100.00;98718.06;4200586;28;20238;-48
2023/09/29 03:40:44;;;;;;;1.80;1.50;;;;;;;16.54;100.00;98720.00;4188879;28;20664;-48
2023/09/29 03:42:46;;;;;;;4.55;1.23;;;;;;;16.51;100.00;98721.41;4188564;28;20200;-48
2023/09/29 03:44:48;;;;;;;1.98;1.50;;;;;;;16.46;100.00;98721.41;4181902;28;20249;-48
2023/09/29 03:46:50;;;;;;;0.90;0.82;;;;;;;16.47;100.00;98720.31;4183280;28;20215;-48
2023/09/29 03:48:52;;;;;;;1.42;1.13;;;;;;;16.47;100.00;98725.84;4187209;28;20199;-49
2023/09/29 03:50:55;;;;;;;1.20;1.10;;;;;;;16.44;100.00;98731.91;4201401;28;20198;-48
2023/09/29 03:52:56;;;;;;;1.60;1.10;;;;;;;16.43;100.00;98733.03;4183137;28;20603;-48
2023/09/29 03:54:58;;;;;;;1.20;1.10;;;;;;;16.40;100.00;98735.53;4202146;28;20725;-48
2023/09/29 03:57:10;;;;;;;1.08;0.98;;;;;;;16.46;100.00;98740.75;4186348;28;20215;-48
2023/09/29 03:59:11;;;;;;;1.55;1.45;;;;;;;16.37;100.00;98739.63;4186650;28;20225;-49
2023/09/29 04:01:15;;;;;;;1.10;1.00;;;;;;;16.34;100.00;98736.63;4188157;28;20238;-49
2023/09/29 04:03:16;;;;;;;3.28;1.65;;;;;;;16.41;100.00;98738.00;4185879;28;20241;-48
2023/09/29 04:05:19;;;;;;;1.77;1.40;;;;;;;16.37;100.00;98730.53;4188543;28;20276;-47
2023/09/29 04:07:21;;;;;;;1.92;1.30;;;;;;;16.29;100.00;98729.19;4190191;28;20218;-48
2023/09/29 04:09:23;;;;;;;1.50;1.20;;;;;;;16.24;100.00;98736.66;4191885;28;20208;-49
2023/09/29 04:11:24;;;;;;;1.92;1.50;;;;;;;16.22;100.00;98733.38;4190683;28;20211;-48
2023/09/29 04:13:26;;;;;;;1.58;1.15;;;;;;;16.24;100.00;98729.19;4183833;28;20212;-48
2023/09/29 04:15:28;;;;;;;1.83;1.52;;;;;;;16.24;100.00;98734.72;4201936;28;20700;-48
2023/09/29 04:17:30;;;;;;;1.50;1.40;;;;;;;16.25;100.00;98733.63;4189391;28;20263;-48
2023/09/29 04:19:34;;;;;;;1.38;1.27;;;;;;;16.38;100.00;98727.53;4188035;28;20250;-48
2023/09/29 04:21:36;;;;;;;1.35;1.25;;;;;;;16.29;100.00;98734.69;4201637;28;20297;-49
2023/09/29 04:23:38;;;;;;;2.08;1.88;;;;;;;16.23;100.00;98730.31;4186587;28;20677;-48
2023/09/29 04:25:40;;;;;;;1.50;1.40;;;;;;;16.12;100.00;98731.47;4184144;28;20259;-49
2023/09/29 04:27:41;;;;;;;2.03;1.42;;;;;;;16.17;100.00;98734.19;4165666;28;20255;-48
2023/09/29 04:29:43;;;;;;;2.15;1.35;;;;;;;16.09;100.00;98728.44;4187653;28;20212;-48
2023/09/29 04:31:45;;;;;;;1.98;1.88;;;;;;;16.11;100.00;98732.56;4184083;28;20211;-48
2023/09/29 04:33:47;;;;;;;2.20;1.38;;;;;;;16.15;100.00;98744.69;4188195;28;20208;-49
2023/09/29 04:35:49;;;;;;;1.73;1.23;;;;;;;16.17;100.00;98736.94;4187354;28;20286;-49
2023/09/29 04:37:51;;;;;;;1.30;1.17;;;;;;;16.16;100.00;98724.25;4186265;28;20229;-49
2023/09/29 04:39:55;;;;;;;1.42;1.20;;;;;;;16.15;100.00;98727.31;4182031;28;20207;-49
2023/09/29 04:41:57;;;;;;;1.75;1.27;;;;;;;16.13;100.00;98730.34;4186065;28;20238;-49
2023/09/29 04:44:00;;;;;;;1.55;1.20;;;;;;;16.13;100.00;98712.94;4187455;28;20239;-48
2023/09/29 04:46:02;;;;;;;2.03;1.60;;;;;;;16.11;100.00;98710.47;4185050;28;20254;-49
2023/09/29 04:48:04;;;;;;;2.22;1.50;;;;;;;16.07;100.00;98714.91;4183346;28;20215;-48
2023/09/29 04:50:07;;;;;;;1.77;1.55;;;;;;;16.10;100.00;98713.50;4183997;28;21176;-49
2023/09/29 04:52:09;;;;;;;1.65;1.08;;;;;;;16.06;100.00;98707.72;4185094;28;20218;-48
2023/09/29 04:54:11;;;;;;;2.08;1.30;;;;;;;16.03;100.00;98708.28;4188002;28;20203;-48
2023/09/29 04:56:13;;;;;;;1.20;1.10;;;;;;;16.01;100.00;98695.84;4186717;28;20304;-49
2023/09/29 04:58:15;;;;;;;1.88;1.50;;;;;;;16.10;100.00;98692.22;4180355;28;20591;-50
2023/09/29 05:00:19;;;;;;;1.92;1.17;;;;;;;16.11;100.00;98690.31;4189756;28;20207;-51
2023/09/29 05:02:21;;;;;;;1.38;1.27;;;;;;;16.04;100.00;98704.41;4186520;28;20207;-49
2023/09/29 05:04:23;;;;;;;1.40;1.20;;;;;;;16.03;100.00;98702.75;4171932;28;20682;-51
2023/09/29 05:06:25;;;;;;;2.58;1.55;;;;;;;16.05;100.00;98700.56;4200200;28;20229;-49
2023/09/29 05:08:27;;;;;;;1.45;1.35;;;;;;;16.11;100.00;98699.44;4186673;28;20242;-50
2023/09/29 05:10:28;;;;;;;1.95;1.30;;;;;;;16.02;100.00;98698.34;4183139;28;20212;-49
2023/09/29 05:12:30;;;;;;;2.55;1.30;;;;;;;16.06;100.00;98699.44;4181281;28;20215;-50
2023/09/29 05:14:32;;;;;;;1.20;1.10;;;;;;;16.04;100.00;98693.34;4182958;28;20223;-49
2023/09/29 05:16:34;;;;;;;2.35;1.27;;;;;;;16.04;100.00;98698.88;4179632;28;20262;-46
2023/09/29 05:18:36;;;;;;;1.83;1.55;;;;;;;16.05;100.00;98699.72;4179615;28;20227;-46
2023/09/29 05:20:38;;;;;;;1.80;1.70;;;;;;;16.10;100.00;98706.03;4184715;28;20837;-52
2023/09/29 05:22:40;;;;;;;1.75;1.35;;;;;;;16.11;100.00;98704.97;4182123;28;20736;-53
2023/09/29 05:24:42;;;;;;;10.65;1.80;;;;;;;16.09;100.00;98709.09;4187596;28;20203;-53
2023/09/29 05:26:43;;;;;;;1.45;1.27;;;;;;;16.11;100.00;98716.00;4185392;28;20286;-49
2023/09/29 05:28:45;;;;;;;4.38;1.00;;;;;;;16.12;100.00;98701.09;4163787;28;20204;-49
2023/09/29 05:30:53;;;;;;;2.33;1.20;;;;;;;16.10;100.00;98708.81;4166425;28;20205;-49
2023/09/29 05:32:55;;;;;;;1.45;1.30;;;;;;;16.09;100.00;98706.34;4198879;28;20209;-50
2023/09/29 05:34:57;;;;;;;1.67;1.27;;;;;;;16.10;100.00;98708.81;4185271;28;20204;-49
2023/09/29 05:36:58;;;;;;;3.10;1.52;;;;;;;16.09;100.00;98707.16;4187850;28;20223;-48
2023/09/29 05:39:00;;;;;;;2.88;1.50;;;;;;;16.11;100.00;98721.53;4188380;28;20227;-52
2023/09/29 05:41:02;;;;;;;1.45;1.35;;;;;;;16.10;100.00;98722.59;4189289;28;20618;-52
2023/09/29 05:43:09;;;;;;;2.08;1.25;;;;;;;16.12;100.00;98725.94;4187372;28;20238;-52
2023/09/29 05:45:15;;;;;;;1.98;1.27;;;;;;;16.10;100.00;98736.41;4183348;28;20227;-50
2023/09/29 05:47:17;;;;;;;2.38;1.40;;;;;;;16.10;100.00;98732.84;4183864;28;20199;-52
2023/09/29 05:49:19;;;;;;;2.13;1.52;;;;;;;16.14;100.00;98731.16;4189782;28;20231;-52
2023/09/29 05:51:21;;;;;;;1.45;1.30;;;;;;;16.13;100.00;98724.81;4185480;28;20222;-51
2023/09/29 05:53:23;;;;;;;1.90;1.40;;;;;;;16.12;100.00;98728.69;4181707;28;20218;-52
2023/09/29 05:55:25;;;;;;;1.58;1.33;;;;;;;16.08;100.00;98724.00;4181408;28;20227;-49
2023/09/29 05:57:27;;;;;;;0.98;0.93;;;;;;;16.15;100.00;98717.06;4180619;28;20235;-51
2023/09/29 05:59:30;;;;;;;1.10;1.00;;;;;;;16.14;100.00;98720.09;4178702;28;20234;-49
2023/09/29 06:01:32;;;;;;;1.23;1.13;;;;;;;16.13;100.00;98708.25;4201557;28;20213;-49
2023/09/29 06:03:34;;;;;;;1.90;1.45;;;;;;;16.10;100.00;98708.81;4181469;28;20211;-48
2023/09/29 06:05:36;;;;;;;3.53;1.48;;;;;;;16.09;100.00;98715.44;4200658;28;20223;-48
2023/09/29 06:07:39;;;;;;;2.03;1.48;;;;;;;16.14;100.00;98715.44;4182191;28;20724;-48
2023/09/29 06:09:41;;;;;;;1.60;1.10;;;;;;;16.15;100.00;98724.56;4190155;28;20210;-50
2023/09/29 06:11:43;;;;;;;1.27;1.13;;;;;;;16.13;100.00;98730.34;4184372;28;20203;-49
2023/09/29 06:13:46;;;;;;;2.08;1.60;;;;;;;16.16;100.00;98735.28;4186234;28;20632;-49
2023/09/29 06:15:48;;;;;;;5.50;1.20;;;;;;;16.17;100.00;98736.94;4186741;28;20323;-49
2023/09/29 06:17:53;;;;;;;1.60;1.25;;;;;;;16.17;100.00;98742.47;4153320;28;20204;-53
2023/09/29 06:19:55;;;;;;;2.55;1.55;;;;;;;16.24;100.00;98743.00;4184669;28;20242;-49
2023/09/29 06:21:57;;;;;;;1.33;1.08;;;;;;;16.21;100.00;98738.06;4170515;28;20328;-49
2023/09/29 06:23:59;;;;;;;2.67;1.95;;;;;;;16.20;100.00;98730.88;4188318;28;20238;-49
2023/09/29 06:26:01;;;;;;;2.03;1.60;;;;;;;16.20;100.00;98741.91;4186605;28;20343;-49
2023/09/29 06:28:03;;;;;;;1.77;1.58;;;;;;;16.16;100.00;98729.78;4170538;28;20211;-49
2023/09/29 06:30:06;;;;;;;2.00;1.55;;;;;;;16.20;100.00;98730.88;4185314;28;20687;-48
2023/09/29 06:32:09;;;;;;;8.68;1.58;;;;;;;16.23;100.00;98741.34;4191778;28;20208;-49
2023/09/29 06:34:11;;;;;;;1.83;1.70;;;;;;;16.30;100.00;98744.63;4201786;28;20230;-48
2023/09/29 06:36:13;;;;;;;1.52;1.42;;;;;;;16.37;100.00;98747.94;4189388;28;20285;-49
2023/09/29 06:38:15;;;;;;;2.65;1.73;;;;;;;16.44;100.00;98737.44;4172693;28;20232;-51
2023/09/29 06:40:17;;;;;;;1.52;1.42;;;;;;;16.41;100.00;98745.47;4194956;28;20601;-52
2023/09/29 06:42:19;;;;;;;5.68;1.35;;;;;;;16.49;100.00;98744.91;4186553;28;20261;-49
2023/09/29 06:44:22;;;;;;;1.83;1.27;;;;;;;16.52;100.00;98747.91;4189455;28;20212;-49
2023/09/29 06:46:24;;;;;;;1.85;1.60;;;;;;;16.53;100.00;98746.81;4195109;28;20232;-50
2023/09/29 06:48:26;;;;;;;3.08;2.13;;;;;;;16.65;100.00;98736.25;4193218;28;20199;-49
2023/09/29 06:50:28;;;;;;;2.00;1.77;;;;;;;16.64;100.00;98725.47;4205794;28;20214;-49
2023/09/29 06:52:30;;;;;;;2.22;1.80;;;;;;;16.69;100.00;98726.28;4192239;28;20207;-49
2023/09/29 06:54:32;;;;;;;5.68;1.92;;;;;;;16.79;100.00;98726.25;4185573;28;20298;-49
2023/09/29 06:56:33;;;;;;;2.85;2.55;;;;;;;16.72;100.00;98722.97;4187887;28;20311;-49
2023/09/29 06:58:35;;;;;;;9.05;1.75;;;;;;;17.13;100.00;98719.63;4169540;28;20205;-49
2023/09/29 07:00:37;;;;;;;2.15;1.90;;;;;;;17.37;100.00;98714.22;4203077;28;20286;-50
2023/09/29 07:02:43;;;;;;;2.35;1.85;;;;;;;17.25;100.00;98722.06;4185679;28;20212;-49
2023/09/29 07:04:47;;;;;;;4.15;1.55;;;;;;;17.28;100.00;98714.00;4186241;28;20281;-48
2023/09/29 07:06:49;;;;;;;1.67;1.45;;;;;;;17.52;100.00;98725.19;4189331;28;20221;-49
2023/09/29 07:08:51;;;;;;;5.63;1.80;;;;;;;17.68;100.00;98718.41;4202643;28;20210;-48
2023/09/29 07:10:55;;;;;;;1.70;1.40;;;;;;;17.75;100.00;98721.66;4203872;28;20706;-49
2023/09/29 07:12:56;;;;;;;2.58;1.50;;;;;;;17.90;100.00;98713.19;4195077;28;20850;-50
2023/09/29 07:14:59;;;;;;;2.13;1.42;;;;;;;17.88;100.00;98704.38;4184704;28;20212;-49
2023/09/29 07:17:01;;;;;;;2.20;1.50;;;;;;;17.98;100.00;98707.03;4197558;28;20208;-49
2023/09/29 07:19:03;;;;;;;1.88;1.42;;;;;;;18.08;100.00;98709.69;4186014;28;20267;-50
2023/09/29 07:21:05;;;;;;;2.65;1.35;;;;;;;18.25;100.00;98710.06;4190173;28;20203;-49
2023/09/29 07:23:08;;;;;;;1.95;1.75;;;;;;;18.82;100.00;98709.91;4206567;28;20737;-49
2023/09/29 07:25:10;;;;;;;3.20;1.10;;;;;;;19.40;100.00;98711.28;4193378;28;20310;-49
2023/09/29 07:27:35;;;;;;;2.47;2.00;;;;;;;19.28;100.00;98708.97;4171651;28;20304;-48
2023/09/29 07:29:37;;;;;;;2.33;1.52;;;;;;;19.21;99.51;98710.47;4192277;28;20209;-49
2023/09/29 07:31:48;;;;;;;1.55;1.45;;;;;;;19.09;100.00;98716.44;4188666;28;20207;-48
2023/09/29 07:33:50;;;;;;;2.38;1.50;;;;;;;18.92;100.00;98710.59;4194101;28;20203;-51
2023/09/29 07:35:52;;;;;;;1.02;0.95;;;;;;;18.81;100.00;98720.19;4186057;28;20232;-48
2023/09/29 07:37:54;;;;;;;2.15;1.30;;;;;;;18.78;100.00;98717.19;4199332;28;20239;-49
2023/09/29 07:39:57;;;;;;;1.63;1.33;;;;;;;18.67;100.00;98719.28;4202848;28;20615;-51
2023/09/29 07:41:59;;;;;;;1.38;1.23;;;;;;;18.75;100.00;98720.53;4190115;28;20225;-46
2023/09/29 07:44:02;;;;;;;1.98;1.80;;;;;;;18.71;100.00;98725.84;4192354;28;20218;-48
2023/09/29 07:46:04;;;;;;;3.83;1.73;;;;;;;18.78;100.00;98736.59;4187328;28;20623;-49
2023/09/29 07:48:07;;;;;;;2.13;1.45;;;;;;;18.64;100.00;98736.47;4200666;28;20298;-49
2023/09/29 07:50:09;;;;;;;1.30;1.20;;;;;;;18.82;100.00;98737.63;4186679;28;20227;-47
2023/09/29 07:52:14;;;;;;;1.90;1.60;;;;;;;19.54;100.00;98745.47;4201558;28;20206;-50
2023/09/29 07:54:19;;;;;;;1.63;1.40;;;;;;;20.34;100.00;98744.06;4201251;28;20198;-47
2023/09/29 07:56:21;;;;;;;2.38;2.17;;;;;;;20.13;96.17;98748.38;4201895;28;20231;-48
2023/09/29 07:58:23;;;;;;;2.25;1.33;;;;;;;20.48;96.38;98756.03;4166318;28;20265;-48
2023/09/29 08:00:25;;;;;;;1.67;1.38;;;;;;;20.56;96.89;98746.94;4184541;28;20226;-47
2023/09/29 08:02:29;;;;;;;2.75;1.40;;;;;;;20.85;91.73;98755.81;4181501;28;20203;-46
2023/09/29 08:04:31;;;;;;;5.55;1.48;;;;;;;21.03;92.05;98750.16;4186122;28;20301;-48
2023/09/29 08:06:33;;;;;;;1.90;1.35;;;;;;;21.85;88.80;98753.53;4184272;28;20588;-48
2023/09/29 08:08:37;;;;;;;1.23;1.13;;;;;;;21.47;88.16;98757.78;4182090;28;20699;-47
2023/09/29 08:10:40;;;;;;;3.50;1.65;;;;;;;21.23;89.22;98763.63;4178755;28;20661;-48
2023/09/29 08:12:41;;;;;;;1.20;1.10;;;;;;;21.24;90.62;98761.66;4181063;28;20631;-49
2023/09/29 08:14:43;;;;;;;2.08;1.20;;;;;;;21.04;92.07;98762.13;4183377;28;20218;-47
2023/09/29 08:16:45;;;;;;;1.50;1.40;;;;;;;21.05;90.51;98758.19;4197773;28;20237;-47
2023/09/29 08:18:47;;;;;;;2.85;1.35;;;;;;;20.94;90.71;98754.81;4185054;28;20242;-48
2023/09/29 08:20:53;;;;;;;2.92;2.17;;;;;;;21.48;90.78;98760.25;4182162;28;20790;-47
2023/09/29 08:22:55;;;;;;;1.45;1.35;;;;;;;21.76;86.96;98769.34;4182947;28;20627;-47
2023/09/29 08:24:57;;;;;;;12.85;2.15;;;;;;;21.89;83.88;98772.06;4181345;28;21154;-47
2023/09/29 08:27:00;;;;;;;2.75;1.50;;;;;;;22.12;84.31;98770.91;4177245;28;20783;-48
2023/09/29 08:29:03;;;;;;;1.75;1.42;;;;;;;21.87;83.03;98773.53;4184318;28;20214;-47
2023/09/29 08:31:15;;;;;;;1.05;0.95;;;;;;;21.62;82.83;98765.75;4165158;28;20214;-47
2023/09/29 08:33:27;;;;;;;1.95;1.83;;;;;;;22.04;82.72;98762.50;4187095;28;20229;-47
2023/09/29 08:35:48;;;;;;;1.55;1.10;;;;;;;22.68;80.57;98767.47;4196679;28;20249;-47
2023/09/29 08:37:50;;;;;;;1.63;1.40;;;;;;;23.07;80.14;98770.22;4180888;28;20674;-47
2023/09/29 08:39:55;;;;;;;2.15;1.08;;;;;;;22.95;76.37;98761.63;4201691;28;20230;-46
2023/09/29 08:42:14;;;;;;;1.30;1.05;;;;;;;23.04;75.88;98765.28;4167621;28;20203;-47
2023/09/29 08:44:19;;;;;;;1.30;0.98;;;;;;;23.37;74.86;98753.38;4188501;28;20252;-47
2023/09/29 08:46:21;;;;;;;1.95;0.85;;;;;;;23.29;73.87;98750.56;4202398;28;20226;-47
2023/09/29 08:48:23;;;;;;;1.92;1.08;;;;;;;23.04;74.23;98754.94;4186371;28;20294;-47
2023/09/29 08:50:25;;;;;;;1.30;1.10;;;;;;;23.02;74.38;98751.66;4189887;28;20397;-47
2023/09/29 08:52:30;;;;;;;1.80;1.23;;;;;;;23.23;73.92;98763.06;4182029;28;20614;-48
2023/09/29 08:54:32;;;;;;;1.80;1.55;;;;;;;23.43;72.74;98756.84;4183696;28;20266;-46
2023/09/29 08:56:34;;;;;;;2.35;1.10;;;;;;;23.83;74.47;98756.34;4184172;28;20227;-48
2023/09/29 08:58:36;;;;;;;1.60;1.25;;;;;;;23.93;70.90;98759.66;4196502;28;20387;-48
2023/09/29 09:00:38;;;;;;;1.08;0.98;;;;;;;24.25;70.50;98775.88;4185678;28;20229;-48
2023/09/29 09:02:44;;;;;;;2.53;0.93;;;;;;;23.44;71.92;98772.47;4176285;28;20286;-47
2023/09/29 09:04:47;;;;;;;2.53;1.73;;;;;;;23.90;71.53;98773.47;4186464;28;20203;-48
2023/09/29 09:06:49;;;;;;;2.13;1.10;;;;;;;24.17;70.96;98773.09;4184991;28;20210;-48
2023/09/29 09:08:52;;;;;;;3.35;0.90;;;;;;;24.51;70.16;98762.66;4180917;28;20211;-47
2023/09/29 09:11:01;;;;;;;2.45;1.50;;;;;;;24.29;70.66;98765.69;4184381;28;20247;-47
2023/09/29 09:13:05;;;;;;;1.33;0.95;;;;;;;23.77;71.03;98764.09;4183855;28;20206;-47
2023/09/29 09:15:08;;;;;;;1.20;0.93;;;;;;;24.75;69.96;98765.72;4185220;28;20238;-47
2023/09/29 09:17:12;;;;;;;1.77;0.90;;;;;;;24.87;67.73;98779.81;4188470;28;20206;-47
2023/09/29 09:19:15;;;;;;;2.35;0.98;;;;;;;24.61;69.03;98773.50;4183080;28;20207;-47
2023/09/29 09:21:17;;;;;;;2.35;1.02;;;;;;;24.70;68.30;98788.31;4187478;28;20241;-47
2023/09/29 09:23:19;;;;;;;0.85;0.85;;;;;;;24.80;68.15;98782.31;4185945;28;20211;-49
2023/09/29 09:25:42;;;;;;;1.15;0.88;;;;;;;24.83;67.90;98790.06;4187955;28;20222;-47
2023/09/29 09:27:48;;;;;;;1.08;0.95;;;;;;;24.68;67.61;98789.78;4196426;28;20199;-47
2023/09/29 09:29:50;;;;;;;1.35;0.70;;;;;;;24.41;68.52;98790.97;4189291;28;20668;-47
2023/09/29 09:31:57;;;;;;;1.65;1.52;;;;;;;24.78;69.00;98784.63;4186471;28;20266;-47
2023/09/29 09:33:59;;;;;;;1.08;0.88;;;;;;;24.97;67.28;98799.06;4186005;28;20262;-49